sensor_id;sensor_type;location;lat;lon;timestamp;P1;durP1;ratioP1;P2;durP2;ratioP2
39032;SDS011;24794;51.982;5.878;2024-02-26T00:00:55;3.22;;;2.17;;
39032;SDS011;24794;51.982;5.878;2024-02-26T00:01:56;3.08;;;2.10;;
39032;SDS011;24794;51.982;5.878;2024-02-26T00:02:56;3.15;;;1.90;;
39032;SDS011;24794;51.982;5.878;2024-02-26T00:03:57;3.25;;;2.10;;
39032;SDS011;24794;51.982;5.878;2024-02-26T00:04:59;3.83;;;2.13;;
39032;SDS011;24794;51.982;5.878;2024-02-26T00:06:00;3.75;;;2.00;;
39032;SDS011;24794;51.982;5.878;2024-02-26T00:07:00;3.38;;;2.05;;
39032;SDS011;24794;51.982;5.878;2024-02-26T00:08:01;3.40;;;2.30;;
39032;SDS011;24794;51.982;5.878;2024-02-26T00:09:02;3.95;;;2.20;;
39032;SDS011;24794;51.982;5.878;2024-02-26T00:10:06;4.45;;;2.13;;
39032;SDS011;24794;51.982;5.878;2024-02-26T00:11:07;2.92;;;2.60;;
39032;SDS011;24794;51.982;5.878;2024-02-26T00:12:07;2.80;;;2.00;;
39032;SDS011;24794;51.982;5.878;2024-02-26T00:13:08;2.80;;;2.05;;
39032;SDS011;24794;51.982;5.878;2024-02-26T00:14:08;5.00;;;2.45;;
39032;SDS011;24794;51.982;5.878;2024-02-26T00:15:09;3.40;;;2.25;;
39032;SDS011;24794;51.982;5.878;2024-02-26T00:16:10;5.15;;;2.40;;
39032;SDS011;24794;51.982;5.878;2024-02-26T00:17:10;3.42;;;2.00;;
39032;SDS011;24794;51.982;5.878;2024-02-26T00:18:12;2.92;;;2.10;;
39032;SDS011;24794;51.982;5.878;2024-02-26T00:19:12;4.45;;;2.30;;
39032;SDS011;24794;51.982;5.878;2024-02-26T00:20:13;5.40;;;2.50;;
39032;SDS011;24794;51.982;5.878;2024-02-26T00:21:14;4.30;;;2.40;;
39032;SDS011;24794;51.982;5.878;2024-02-26T00:22:14;3.17;;;2.40;;
39032;SDS011;24794;51.982;5.878;2024-02-26T00:23:15;5.43;;;2.22;;
39032;SDS011;24794;51.982;5.878;2024-02-26T00:24:16;3.92;;;2.40;;
39032;SDS011;24794;51.982;5.878;2024-02-26T00:25:16;3.80;;;2.67;;
39032;SDS011;24794;51.982;5.878;2024-02-26T00:26:17;3.47;;;2.45;;
39032;SDS011;24794;51.982;5.878;2024-02-26T00:27:18;3.28;;;2.40;;
39032;SDS011;24794;51.982;5.878;2024-02-26T00:28:18;5.03;;;2.80;;
39032;SDS011;24794;51.982;5.878;2024-02-26T00:29:20;3.78;;;2.40;;
39032;SDS011;24794;51.982;5.878;2024-02-26T00:30:21;3.85;;;2.35;;
39032;SDS011;24794;51.982;5.878;2024-02-26T00:31:23;3.63;;;2.35;;
39032;SDS011;24794;51.982;5.878;2024-02-26T00:32:23;3.67;;;2.10;;
39032;SDS011;24794;51.982;5.878;2024-02-26T00:33:24;7.60;;;3.00;;
39032;SDS011;24794;51.982;5.878;2024-02-26T00:34:24;3.53;;;2.55;;
39032;SDS011;24794;51.982;5.878;2024-02-26T00:35:25;3.60;;;2.40;;
39032;SDS011;24794;51.982;5.878;2024-02-26T00:36:25;4.20;;;2.03;;
39032;SDS011;24794;51.982;5.878;2024-02-26T00:37:26;4.35;;;2.50;;
39032;SDS011;24794;51.982;5.878;2024-02-26T00:38:27;3.83;;;2.53;;
39032;SDS011;24794;51.982;5.878;2024-02-26T00:39:27;4.28;;;2.50;;
39032;SDS011;24794;51.982;5.878;2024-02-26T00:40:28;2.80;;;2.03;;
39032;SDS011;24794;51.982;5.878;2024-02-26T00:41:29;3.92;;;2.20;;
39032;SDS011;24794;51.982;5.878;2024-02-26T00:42:29;5.32;;;2.53;;
39032;SDS011;24794;51.982;5.878;2024-02-26T00:43:30;4.35;;;2.55;;
39032;SDS011;24794;51.982;5.878;2024-02-26T00:44:30;2.50;;;2.00;;
39032;SDS011;24794;51.982;5.878;2024-02-26T00:45:32;4.70;;;2.47;;
39032;SDS011;24794;51.982;5.878;2024-02-26T00:46:32;2.65;;;2.05;;
39032;SDS011;24794;51.982;5.878;2024-02-26T00:47:33;4.40;;;2.30;;
39032;SDS011;24794;51.982;5.878;2024-02-26T00:48:33;4.10;;;2.20;;
39032;SDS011;24794;51.982;5.878;2024-02-26T00:49:34;3.17;;;2.15;;
39032;SDS011;24794;51.982;5.878;2024-02-26T00:50:34;3.35;;;2.33;;
39032;SDS011;24794;51.982;5.878;2024-02-26T00:51:35;3.20;;;2.10;;
39032;SDS011;24794;51.982;5.878;2024-02-26T00:52:35;4.45;;;2.35;;
39032;SDS011;24794;51.982;5.878;2024-02-26T00:53:36;4.40;;;2.08;;
39032;SDS011;24794;51.982;5.878;2024-02-26T00:54:36;5.47;;;2.30;;
39032;SDS011;24794;51.982;5.878;2024-02-26T00:55:37;3.92;;;1.90;;
39032;SDS011;24794;51.982;5.878;2024-02-26T00:56:38;4.10;;;2.50;;
39032;SDS011;24794;51.982;5.878;2024-02-26T00:57:38;4.05;;;2.10;;
39032;SDS011;24794;51.982;5.878;2024-02-26T00:58:40;2.30;;;1.88;;
39032;SDS011;24794;51.982;5.878;2024-02-26T00:59:41;4.82;;;2.40;;
39032;SDS011;24794;51.982;5.878;2024-02-26T01:00:41;3.80;;;2.00;;
39032;SDS011;24794;51.982;5.878;2024-02-26T01:01:42;2.92;;;1.88;;
39032;SDS011;24794;51.982;5.878;2024-02-26T01:02:42;3.08;;;1.70;;
39032;SDS011;24794;51.982;5.878;2024-02-26T01:03:43;2.38;;;1.90;;
39032;SDS011;24794;51.982;5.878;2024-02-26T01:04:43;4.03;;;2.03;;
39032;SDS011;24794;51.982;5.878;2024-02-26T01:05:44;2.70;;;1.88;;
39032;SDS011;24794;51.982;5.878;2024-02-26T01:06:45;2.65;;;1.70;;
39032;SDS011;24794;51.982;5.878;2024-02-26T01:07:45;2.28;;;1.73;;
39032;SDS011;24794;51.982;5.878;2024-02-26T01:08:46;2.78;;;1.90;;
39032;SDS011;24794;51.982;5.878;2024-02-26T01:09:46;3.97;;;1.70;;
39032;SDS011;24794;51.982;5.878;2024-02-26T01:10:47;2.78;;;1.80;;
39032;SDS011;24794;51.982;5.878;2024-02-26T01:11:48;3.80;;;2.20;;
39032;SDS011;24794;51.982;5.878;2024-02-26T01:12:48;2.97;;;2.00;;
39032;SDS011;24794;51.982;5.878;2024-02-26T01:13:49;2.83;;;2.22;;
39032;SDS011;24794;51.982;5.878;2024-02-26T01:14:53;3.75;;;2.30;;
39032;SDS011;24794;51.982;5.878;2024-02-26T01:15:53;3.08;;;2.08;;
39032;SDS011;24794;51.982;5.878;2024-02-26T01:16:54;3.03;;;1.92;;
39032;SDS011;24794;51.982;5.878;2024-02-26T01:17:54;4.55;;;2.28;;
39032;SDS011;24794;51.982;5.878;2024-02-26T01:18:55;3.03;;;2.15;;
39032;SDS011;24794;51.982;5.878;2024-02-26T01:19:56;5.97;;;2.30;;
39032;SDS011;24794;51.982;5.878;2024-02-26T01:20:56;3.03;;;2.30;;
39032;SDS011;24794;51.982;5.878;2024-02-26T01:21:57;2.88;;;2.13;;
39032;SDS011;24794;51.982;5.878;2024-02-26T01:22:57;4.57;;;2.40;;
39032;SDS011;24794;51.982;5.878;2024-02-26T01:23:58;3.97;;;2.10;;
39032;SDS011;24794;51.982;5.878;2024-02-26T01:24:59;3.80;;;2.20;;
39032;SDS011;24794;51.982;5.878;2024-02-26T01:25:59;3.25;;;2.15;;
39032;SDS011;24794;51.982;5.878;2024-02-26T01:27:00;2.15;;;1.90;;
39032;SDS011;24794;51.982;5.878;2024-02-26T01:28:00;2.88;;;2.22;;
39032;SDS011;24794;51.982;5.878;2024-02-26T01:29:01;4.40;;;2.00;;
39032;SDS011;24794;51.982;5.878;2024-02-26T01:30:02;3.15;;;2.38;;
39032;SDS011;24794;51.982;5.878;2024-02-26T01:31:04;3.40;;;2.20;;
39032;SDS011;24794;51.982;5.878;2024-02-26T01:32:06;2.50;;;2.00;;
39032;SDS011;24794;51.982;5.878;2024-02-26T01:33:07;3.08;;;2.25;;
39032;SDS011;24794;51.982;5.878;2024-02-26T01:34:08;2.90;;;2.10;;
39032;SDS011;24794;51.982;5.878;2024-02-26T01:35:08;3.22;;;2.17;;
39032;SDS011;24794;51.982;5.878;2024-02-26T01:36:11;4.75;;;2.60;;
39032;SDS011;24794;51.982;5.878;2024-02-26T01:37:11;3.25;;;2.67;;
39032;SDS011;24794;51.982;5.878;2024-02-26T01:38:12;4.03;;;2.33;;
39032;SDS011;24794;51.982;5.878;2024-02-26T01:39:12;4.32;;;2.60;;
39032;SDS011;24794;51.982;5.878;2024-02-26T01:40:13;3.50;;;2.20;;
39032;SDS011;24794;51.982;5.878;2024-02-26T01:41:17;3.88;;;2.20;;
39032;SDS011;24794;51.982;5.878;2024-02-26T01:42:18;3.35;;;2.60;;
39032;SDS011;24794;51.982;5.878;2024-02-26T01:43:19;3.65;;;2.60;;
39032;SDS011;24794;51.982;5.878;2024-02-26T01:44:19;3.70;;;2.05;;
39032;SDS011;24794;51.982;5.878;2024-02-26T01:45:21;2.97;;;2.20;;
39032;SDS011;24794;51.982;5.878;2024-02-26T01:46:24;3.03;;;2.30;;
39032;SDS011;24794;51.982;5.878;2024-02-26T01:47:25;4.18;;;2.53;;
39032;SDS011;24794;51.982;5.878;2024-02-26T01:48:27;4.60;;;2.45;;
39032;SDS011;24794;51.982;5.878;2024-02-26T01:49:28;3.33;;;2.30;;
39032;SDS011;24794;51.982;5.878;2024-02-26T01:50:29;3.00;;;2.30;;
39032;SDS011;24794;51.982;5.878;2024-02-26T01:51:29;5.13;;;2.65;;
39032;SDS011;24794;51.982;5.878;2024-02-26T01:52:32;3.70;;;2.65;;
39032;SDS011;24794;51.982;5.878;2024-02-26T01:53:33;4.18;;;2.30;;
39032;SDS011;24794;51.982;5.878;2024-02-26T01:54:34;4.22;;;3.00;;
39032;SDS011;24794;51.982;5.878;2024-02-26T01:55:36;4.30;;;2.75;;
39032;SDS011;24794;51.982;5.878;2024-02-26T01:56:37;3.10;;;2.45;;
39032;SDS011;24794;51.982;5.878;2024-02-26T01:57:41;3.28;;;2.80;;
39032;SDS011;24794;51.982;5.878;2024-02-26T01:58:43;3.63;;;2.88;;
39032;SDS011;24794;51.982;5.878;2024-02-26T01:59:44;3.97;;;2.88;;
39032;SDS011;24794;51.982;5.878;2024-02-26T02:00:45;4.72;;;2.72;;
39032;SDS011;24794;51.982;5.878;2024-02-26T02:01:48;5.25;;;2.55;;
39032;SDS011;24794;51.982;5.878;2024-02-26T02:02:54;3.90;;;2.67;;
39032;SDS011;24794;51.982;5.878;2024-02-26T02:03:58;4.20;;;2.63;;
39032;SDS011;24794;51.982;5.878;2024-02-26T02:05:00;4.63;;;2.42;;
39032;SDS011;24794;51.982;5.878;2024-02-26T02:06:01;4.32;;;2.47;;
39032;SDS011;24794;51.982;5.878;2024-02-26T02:07:02;3.88;;;2.65;;
39032;SDS011;24794;51.982;5.878;2024-02-26T02:08:03;3.85;;;2.80;;
39032;SDS011;24794;51.982;5.878;2024-02-26T02:09:05;3.50;;;2.50;;
39032;SDS011;24794;51.982;5.878;2024-02-26T02:10:07;3.00;;;2.30;;
39032;SDS011;24794;51.982;5.878;2024-02-26T02:11:08;3.05;;;2.40;;
39032;SDS011;24794;51.982;5.878;2024-02-26T02:12:11;3.55;;;2.38;;
39032;SDS011;24794;51.982;5.878;2024-02-26T02:13:12;3.28;;;2.55;;
39032;SDS011;24794;51.982;5.878;2024-02-26T02:14:12;2.80;;;2.33;;
39032;SDS011;24794;51.982;5.878;2024-02-26T02:15:13;3.83;;;2.58;;
39032;SDS011;24794;51.982;5.878;2024-02-26T02:16:13;4.25;;;2.50;;
39032;SDS011;24794;51.982;5.878;2024-02-26T02:17:14;3.00;;;2.40;;
39032;SDS011;24794;51.982;5.878;2024-02-26T02:18:15;5.13;;;2.70;;
39032;SDS011;24794;51.982;5.878;2024-02-26T02:19:15;3.13;;;2.22;;
39032;SDS011;24794;51.982;5.878;2024-02-26T02:20:16;4.80;;;2.40;;
39032;SDS011;24794;51.982;5.878;2024-02-26T02:21:17;3.58;;;2.50;;
39032;SDS011;24794;51.982;5.878;2024-02-26T02:22:18;6.13;;;2.80;;
39032;SDS011;24794;51.982;5.878;2024-02-26T02:23:19;3.50;;;2.47;;
39032;SDS011;24794;51.982;5.878;2024-02-26T02:24:19;3.95;;;2.60;;
39032;SDS011;24794;51.982;5.878;2024-02-26T02:25:20;5.28;;;2.58;;
39032;SDS011;24794;51.982;5.878;2024-02-26T02:26:20;4.43;;;2.88;;
39032;SDS011;24794;51.982;5.878;2024-02-26T02:27:21;3.60;;;2.45;;
39032;SDS011;24794;51.982;5.878;2024-02-26T02:28:22;2.92;;;2.40;;
39032;SDS011;24794;51.982;5.878;2024-02-26T02:29:25;3.60;;;2.30;;
39032;SDS011;24794;51.982;5.878;2024-02-26T02:30:28;3.55;;;2.65;;
39032;SDS011;24794;51.982;5.878;2024-02-26T02:31:30;3.15;;;2.30;;
39032;SDS011;24794;51.982;5.878;2024-02-26T02:32:31;3.40;;;2.40;;
39032;SDS011;24794;51.982;5.878;2024-02-26T02:33:33;3.15;;;2.20;;
39032;SDS011;24794;51.982;5.878;2024-02-26T02:34:34;3.95;;;2.25;;
39032;SDS011;24794;51.982;5.878;2024-02-26T02:35:36;4.07;;;2.60;;
39032;SDS011;24794;51.982;5.878;2024-02-26T02:36:47;4.07;;;2.28;;
39032;SDS011;24794;51.982;5.878;2024-02-26T02:37:51;4.00;;;3.03;;
39032;SDS011;24794;51.982;5.878;2024-02-26T02:38:52;3.40;;;2.17;;
39032;SDS011;24794;51.982;5.878;2024-02-26T02:39:53;2.72;;;2.22;;
39032;SDS011;24794;51.982;5.878;2024-02-26T02:40:55;3.88;;;2.13;;
39032;SDS011;24794;51.982;5.878;2024-02-26T02:41:55;3.10;;;2.38;;
39032;SDS011;24794;51.982;5.878;2024-02-26T02:42:56;3.45;;;2.15;;
39032;SDS011;24794;51.982;5.878;2024-02-26T02:43:56;4.00;;;2.70;;
39032;SDS011;24794;51.982;5.878;2024-02-26T02:44:57;3.53;;;2.65;;
39032;SDS011;24794;51.982;5.878;2024-02-26T02:45:58;2.65;;;2.45;;
39032;SDS011;24794;51.982;5.878;2024-02-26T02:46:58;5.72;;;3.00;;
39032;SDS011;24794;51.982;5.878;2024-02-26T02:47:59;3.60;;;2.70;;
39032;SDS011;24794;51.982;5.878;2024-02-26T02:48:59;3.88;;;2.35;;
39032;SDS011;24794;51.982;5.878;2024-02-26T02:50:00;3.53;;;2.58;;
39032;SDS011;24794;51.982;5.878;2024-02-26T02:51:00;3.17;;;2.42;;
39032;SDS011;24794;51.982;5.878;2024-02-26T02:52:01;4.13;;;2.80;;
39032;SDS011;24794;51.982;5.878;2024-02-26T02:53:02;2.60;;;2.20;;
39032;SDS011;24794;51.982;5.878;2024-02-26T02:54:02;3.28;;;2.70;;
39032;SDS011;24794;51.982;5.878;2024-02-26T02:55:03;4.03;;;2.40;;
39032;SDS011;24794;51.982;5.878;2024-02-26T02:56:04;2.85;;;2.50;;
39032;SDS011;24794;51.982;5.878;2024-02-26T02:57:05;4.28;;;2.55;;
39032;SDS011;24794;51.982;5.878;2024-02-26T02:58:05;3.28;;;2.30;;
39032;SDS011;24794;51.982;5.878;2024-02-26T02:59:06;4.07;;;2.83;;
39032;SDS011;24794;51.982;5.878;2024-02-26T03:00:07;3.22;;;2.35;;
39032;SDS011;24794;51.982;5.878;2024-02-26T03:01:08;3.05;;;2.40;;
39032;SDS011;24794;51.982;5.878;2024-02-26T03:02:09;4.38;;;2.70;;
39032;SDS011;24794;51.982;5.878;2024-02-26T03:03:09;3.75;;;2.40;;
39032;SDS011;24794;51.982;5.878;2024-02-26T03:04:10;4.18;;;2.80;;
39032;SDS011;24794;51.982;5.878;2024-02-26T03:05:11;2.75;;;2.13;;
39032;SDS011;24794;51.982;5.878;2024-02-26T03:06:11;5.60;;;2.58;;
39032;SDS011;24794;51.982;5.878;2024-02-26T03:07:12;2.65;;;2.20;;
39032;SDS011;24794;51.982;5.878;2024-02-26T03:08:13;2.60;;;2.15;;
39032;SDS011;24794;51.982;5.878;2024-02-26T03:09:13;2.60;;;1.85;;
39032;SDS011;24794;51.982;5.878;2024-02-26T03:10:14;2.95;;;2.05;;
39032;SDS011;24794;51.982;5.878;2024-02-26T03:11:14;3.65;;;2.40;;
39032;SDS011;24794;51.982;5.878;2024-02-26T03:12:15;3.72;;;2.08;;
39032;SDS011;24794;51.982;5.878;2024-02-26T03:13:16;2.22;;;2.00;;
39032;SDS011;24794;51.982;5.878;2024-02-26T03:14:16;3.42;;;2.35;;
39032;SDS011;24794;51.982;5.878;2024-02-26T03:15:17;3.80;;;2.53;;
39032;SDS011;24794;51.982;5.878;2024-02-26T03:16:17;4.70;;;2.20;;
39032;SDS011;24794;51.982;5.878;2024-02-26T03:17:18;3.35;;;2.35;;
39032;SDS011;24794;51.982;5.878;2024-02-26T03:18:19;3.53;;;2.45;;
39032;SDS011;24794;51.982;5.878;2024-02-26T03:19:20;4.13;;;2.40;;
39032;SDS011;24794;51.982;5.878;2024-02-26T03:20:21;3.40;;;2.45;;
39032;SDS011;24794;51.982;5.878;2024-02-26T03:21:21;3.47;;;2.33;;
39032;SDS011;24794;51.982;5.878;2024-02-26T03:22:22;3.45;;;2.00;;
39032;SDS011;24794;51.982;5.878;2024-02-26T03:23:22;3.75;;;2.20;;
39032;SDS011;24794;51.982;5.878;2024-02-26T03:24:23;2.58;;;2.20;;
39032;SDS011;24794;51.982;5.878;2024-02-26T03:25:23;3.17;;;2.00;;
39032;SDS011;24794;51.982;5.878;2024-02-26T03:26:24;3.58;;;2.10;;
39032;SDS011;24794;51.982;5.878;2024-02-26T03:27:24;3.05;;;2.10;;
39032;SDS011;24794;51.982;5.878;2024-02-26T03:28:25;3.95;;;2.13;;
39032;SDS011;24794;51.982;5.878;2024-02-26T03:29:25;3.65;;;1.83;;
39032;SDS011;24794;51.982;5.878;2024-02-26T03:30:26;3.00;;;2.15;;
39032;SDS011;24794;51.982;5.878;2024-02-26T03:31:27;3.42;;;2.05;;
39032;SDS011;24794;51.982;5.878;2024-02-26T03:32:27;3.53;;;1.88;;
39032;SDS011;24794;51.982;5.878;2024-02-26T03:33:28;2.10;;;1.85;;
39032;SDS011;24794;51.982;5.878;2024-02-26T03:34:29;2.20;;;2.00;;
39032;SDS011;24794;51.982;5.878;2024-02-26T03:35:30;2.40;;;2.03;;
39032;SDS011;24794;51.982;5.878;2024-02-26T03:36:31;2.90;;;2.10;;
39032;SDS011;24794;51.982;5.878;2024-02-26T03:37:31;2.72;;;2.25;;
39032;SDS011;24794;51.982;5.878;2024-02-26T03:38:32;3.17;;;2.00;;
39032;SDS011;24794;51.982;5.878;2024-02-26T03:39:33;2.78;;;2.10;;
39032;SDS011;24794;51.982;5.878;2024-02-26T03:40:33;3.42;;;2.28;;
39032;SDS011;24794;51.982;5.878;2024-02-26T03:41:34;3.80;;;2.30;;
39032;SDS011;24794;51.982;5.878;2024-02-26T03:42:38;2.67;;;2.05;;
39032;SDS011;24794;51.982;5.878;2024-02-26T03:43:54;4.43;;;2.47;;
39032;SDS011;24794;51.982;5.878;2024-02-26T03:44:54;2.70;;;2.25;;
39032;SDS011;24794;51.982;5.878;2024-02-26T03:45:55;4.30;;;2.90;;
39032;SDS011;24794;51.982;5.878;2024-02-26T03:46:55;3.92;;;3.08;;
39032;SDS011;24794;51.982;5.878;2024-02-26T03:47:56;3.38;;;2.60;;
39032;SDS011;24794;51.982;5.878;2024-02-26T03:48:57;4.05;;;2.75;;
39032;SDS011;24794;51.982;5.878;2024-02-26T03:49:57;3.10;;;2.50;;
39032;SDS011;24794;51.982;5.878;2024-02-26T03:50:59;3.47;;;2.45;;
39032;SDS011;24794;51.982;5.878;2024-02-26T03:52:00;3.17;;;2.60;;
39032;SDS011;24794;51.982;5.878;2024-02-26T03:53:01;3.03;;;2.38;;
39032;SDS011;24794;51.982;5.878;2024-02-26T03:54:01;4.18;;;2.75;;
39032;SDS011;24794;51.982;5.878;2024-02-26T03:55:02;3.15;;;2.58;;
39032;SDS011;24794;51.982;5.878;2024-02-26T03:56:04;3.95;;;2.60;;
39032;SDS011;24794;51.982;5.878;2024-02-26T03:57:05;3.38;;;2.67;;
39032;SDS011;24794;51.982;5.878;2024-02-26T03:58:05;3.13;;;2.83;;
39032;SDS011;24794;51.982;5.878;2024-02-26T03:59:06;4.00;;;2.70;;
39032;SDS011;24794;51.982;5.878;2024-02-26T04:00:06;3.28;;;2.38;;
39032;SDS011;24794;51.982;5.878;2024-02-26T04:01:08;4.55;;;3.33;;
39032;SDS011;24794;51.982;5.878;2024-02-26T04:02:09;3.83;;;3.22;;
39032;SDS011;24794;51.982;5.878;2024-02-26T04:03:09;4.28;;;2.90;;
39032;SDS011;24794;51.982;5.878;2024-02-26T04:04:10;3.42;;;2.80;;
39032;SDS011;24794;51.982;5.878;2024-02-26T04:05:11;4.53;;;3.15;;
39032;SDS011;24794;51.982;5.878;2024-02-26T04:06:11;3.97;;;3.00;;
39032;SDS011;24794;51.982;5.878;2024-02-26T04:07:15;3.45;;;2.75;;
39032;SDS011;24794;51.982;5.878;2024-02-26T04:08:16;4.40;;;2.75;;
39032;SDS011;24794;51.982;5.878;2024-02-26T04:09:17;5.25;;;3.00;;
39032;SDS011;24794;51.982;5.878;2024-02-26T04:10:17;3.28;;;2.97;;
39032;SDS011;24794;51.982;5.878;2024-02-26T04:11:18;3.53;;;2.95;;
39032;SDS011;24794;51.982;5.878;2024-02-26T04:12:18;3.75;;;3.20;;
39032;SDS011;24794;51.982;5.878;2024-02-26T04:13:19;5.70;;;3.63;;
39032;SDS011;24794;51.982;5.878;2024-02-26T04:14:20;4.57;;;3.42;;
39032;SDS011;24794;51.982;5.878;2024-02-26T04:15:20;3.83;;;3.33;;
39032;SDS011;24794;51.982;5.878;2024-02-26T04:16:21;4.20;;;3.13;;
39032;SDS011;24794;51.982;5.878;2024-02-26T04:17:21;4.18;;;3.28;;
39032;SDS011;24794;51.982;5.878;2024-02-26T04:18:22;4.18;;;3.17;;
39032;SDS011;24794;51.982;5.878;2024-02-26T04:19:22;5.50;;;4.03;;
39032;SDS011;24794;51.982;5.878;2024-02-26T04:20:23;4.90;;;3.58;;
39032;SDS011;24794;51.982;5.878;2024-02-26T04:21:24;6.28;;;3.95;;
39032;SDS011;24794;51.982;5.878;2024-02-26T04:22:24;5.35;;;3.78;;
39032;SDS011;24794;51.982;5.878;2024-02-26T04:23:25;5.40;;;3.30;;
39032;SDS011;24794;51.982;5.878;2024-02-26T04:24:25;5.13;;;3.25;;
39032;SDS011;24794;51.982;5.878;2024-02-26T04:25:26;7.88;;;4.20;;
39032;SDS011;24794;51.982;5.878;2024-02-26T04:26:27;5.03;;;3.97;;
39032;SDS011;24794;51.982;5.878;2024-02-26T04:27:28;5.80;;;3.60;;
39032;SDS011;24794;51.982;5.878;2024-02-26T04:28:29;4.25;;;3.47;;
39032;SDS011;24794;51.982;5.878;2024-02-26T04:29:29;3.95;;;3.30;;
39032;SDS011;24794;51.982;5.878;2024-02-26T04:30:30;4.05;;;3.47;;
39032;SDS011;24794;51.982;5.878;2024-02-26T04:31:31;5.00;;;3.55;;
39032;SDS011;24794;51.982;5.878;2024-02-26T04:32:32;4.72;;;3.50;;
39032;SDS011;24794;51.982;5.878;2024-02-26T04:33:34;5.47;;;3.78;;
39032;SDS011;24794;51.982;5.878;2024-02-26T04:34:35;5.07;;;4.18;;
39032;SDS011;24794;51.982;5.878;2024-02-26T04:35:35;4.88;;;3.97;;
39032;SDS011;24794;51.982;5.878;2024-02-26T04:36:36;5.45;;;3.97;;
39032;SDS011;24794;51.982;5.878;2024-02-26T04:37:36;4.38;;;3.80;;
39032;SDS011;24794;51.982;5.878;2024-02-26T04:38:38;4.60;;;3.55;;
39032;SDS011;24794;51.982;5.878;2024-02-26T04:39:38;4.43;;;3.88;;
39032;SDS011;24794;51.982;5.878;2024-02-26T04:40:39;5.57;;;3.88;;
39032;SDS011;24794;51.982;5.878;2024-02-26T04:41:39;6.18;;;4.30;;
39032;SDS011;24794;51.982;5.878;2024-02-26T04:42:40;5.07;;;3.85;;
39032;SDS011;24794;51.982;5.878;2024-02-26T04:43:40;5.80;;;3.80;;
39032;SDS011;24794;51.982;5.878;2024-02-26T04:44:44;6.15;;;3.67;;
39032;SDS011;24794;51.982;5.878;2024-02-26T04:45:44;4.70;;;3.80;;
39032;SDS011;24794;51.982;5.878;2024-02-26T04:46:45;5.25;;;4.07;;
39032;SDS011;24794;51.982;5.878;2024-02-26T04:47:46;5.18;;;4.03;;
39032;SDS011;24794;51.982;5.878;2024-02-26T04:48:47;5.57;;;3.97;;
39032;SDS011;24794;51.982;5.878;2024-02-26T04:49:49;4.50;;;3.83;;
39032;SDS011;24794;51.982;5.878;2024-02-26T04:50:50;9.93;;;4.95;;
39032;SDS011;24794;51.982;5.878;2024-02-26T04:51:50;5.20;;;3.97;;
39032;SDS011;24794;51.982;5.878;2024-02-26T04:52:51;7.80;;;4.60;;
39032;SDS011;24794;51.982;5.878;2024-02-26T04:53:51;7.07;;;5.18;;
39032;SDS011;24794;51.982;5.878;2024-02-26T04:54:53;6.70;;;4.35;;
39032;SDS011;24794;51.982;5.878;2024-02-26T04:55:54;5.07;;;4.55;;
39032;SDS011;24794;51.982;5.878;2024-02-26T04:56:55;6.53;;;4.78;;
39032;SDS011;24794;51.982;5.878;2024-02-26T04:57:55;5.72;;;4.35;;
39032;SDS011;24794;51.982;5.878;2024-02-26T04:58:56;5.07;;;4.03;;
39032;SDS011;24794;51.982;5.878;2024-02-26T04:59:56;8.70;;;4.35;;
39032;SDS011;24794;51.982;5.878;2024-02-26T05:00:57;5.65;;;4.30;;
39032;SDS011;24794;51.982;5.878;2024-02-26T05:01:57;4.95;;;4.18;;
39032;SDS011;24794;51.982;5.878;2024-02-26T05:02:58;5.93;;;4.60;;
39032;SDS011;24794;51.982;5.878;2024-02-26T05:03:58;6.03;;;4.88;;
39032;SDS011;24794;51.982;5.878;2024-02-26T05:04:59;6.65;;;4.43;;
39032;SDS011;24794;51.982;5.878;2024-02-26T05:06:00;6.13;;;4.80;;
39032;SDS011;24794;51.982;5.878;2024-02-26T05:07:00;8.02;;;4.68;;
39032;SDS011;24794;51.982;5.878;2024-02-26T05:08:01;5.60;;;4.68;;
39032;SDS011;24794;51.982;5.878;2024-02-26T05:09:03;5.80;;;4.28;;
39032;SDS011;24794;51.982;5.878;2024-02-26T05:10:03;5.63;;;4.38;;
39032;SDS011;24794;51.982;5.878;2024-02-26T05:11:05;5.55;;;3.97;;
39032;SDS011;24794;51.982;5.878;2024-02-26T05:12:06;6.30;;;3.90;;
39032;SDS011;24794;51.982;5.878;2024-02-26T05:13:06;3.80;;;3.33;;
39032;SDS011;24794;51.982;5.878;2024-02-26T05:14:07;5.68;;;4.25;;
39032;SDS011;24794;51.982;5.878;2024-02-26T05:15:09;7.93;;;4.57;;
39032;SDS011;24794;51.982;5.878;2024-02-26T05:16:09;6.05;;;4.20;;
39032;SDS011;24794;51.982;5.878;2024-02-26T05:17:10;5.28;;;4.13;;
39032;SDS011;24794;51.982;5.878;2024-02-26T05:18:11;5.22;;;4.18;;
39032;SDS011;24794;51.982;5.878;2024-02-26T05:19:12;5.47;;;4.13;;
39032;SDS011;24794;51.982;5.878;2024-02-26T05:20:12;5.10;;;3.80;;
39032;SDS011;24794;51.982;5.878;2024-02-26T05:21:13;6.70;;;4.88;;
39032;SDS011;24794;51.982;5.878;2024-02-26T05:22:13;5.78;;;4.40;;
39032;SDS011;24794;51.982;5.878;2024-02-26T05:23:14;6.93;;;4.68;;
39032;SDS011;24794;51.982;5.878;2024-02-26T05:24:14;6.15;;;4.30;;
39032;SDS011;24794;51.982;5.878;2024-02-26T05:25:17;6.47;;;4.72;;
39032;SDS011;24794;51.982;5.878;2024-02-26T05:26:24;5.80;;;4.70;;
39032;SDS011;24794;51.982;5.878;2024-02-26T05:27:24;5.82;;;4.28;;
39032;SDS011;24794;51.982;5.878;2024-02-26T05:28:25;5.88;;;4.28;;
39032;SDS011;24794;51.982;5.878;2024-02-26T05:29:25;6.90;;;4.45;;
39032;SDS011;24794;51.982;5.878;2024-02-26T05:30:26;4.90;;;4.15;;
39032;SDS011;24794;51.982;5.878;2024-02-26T05:31:28;5.70;;;4.43;;
39032;SDS011;24794;51.982;5.878;2024-02-26T05:32:28;7.15;;;5.10;;
39032;SDS011;24794;51.982;5.878;2024-02-26T05:33:29;7.30;;;4.82;;
39032;SDS011;24794;51.982;5.878;2024-02-26T05:34:29;6.57;;;4.55;;
39032;SDS011;24794;51.982;5.878;2024-02-26T05:35:30;5.38;;;4.55;;
39032;SDS011;24794;51.982;5.878;2024-02-26T05:36:30;7.00;;;4.90;;
39032;SDS011;24794;51.982;5.878;2024-02-26T05:37:33;5.90;;;4.70;;
39032;SDS011;24794;51.982;5.878;2024-02-26T05:38:34;6.10;;;5.00;;
39032;SDS011;24794;51.982;5.878;2024-02-26T05:39:34;5.40;;;4.15;;
39032;SDS011;24794;51.982;5.878;2024-02-26T05:40:35;9.38;;;5.40;;
39032;SDS011;24794;51.982;5.878;2024-02-26T05:41:35;8.00;;;5.07;;
39032;SDS011;24794;51.982;5.878;2024-02-26T05:42:36;7.30;;;4.93;;
39032;SDS011;24794;51.982;5.878;2024-02-26T05:43:36;7.65;;;5.30;;
39032;SDS011;24794;51.982;5.878;2024-02-26T05:44:37;6.82;;;4.57;;
39032;SDS011;24794;51.982;5.878;2024-02-26T05:45:37;6.82;;;4.82;;
39032;SDS011;24794;51.982;5.878;2024-02-26T05:46:38;7.20;;;5.05;;
39032;SDS011;24794;51.982;5.878;2024-02-26T05:47:39;8.68;;;5.00;;
39032;SDS011;24794;51.982;5.878;2024-02-26T05:48:42;5.28;;;4.30;;
39032;SDS011;24794;51.982;5.878;2024-02-26T05:49:43;6.13;;;4.13;;
39032;SDS011;24794;51.982;5.878;2024-02-26T05:50:43;8.43;;;5.78;;
39032;SDS011;24794;51.982;5.878;2024-02-26T05:51:44;6.18;;;4.88;;
39032;SDS011;24794;51.982;5.878;2024-02-26T05:52:45;6.63;;;5.05;;
39032;SDS011;24794;51.982;5.878;2024-02-26T05:53:45;6.55;;;5.13;;
39032;SDS011;24794;51.982;5.878;2024-02-26T05:54:53;6.57;;;5.03;;
39032;SDS011;24794;51.982;5.878;2024-02-26T05:55:54;6.95;;;5.07;;
39032;SDS011;24794;51.982;5.878;2024-02-26T05:56:54;7.40;;;4.82;;
39032;SDS011;24794;51.982;5.878;2024-02-26T05:57:55;5.85;;;4.50;;
39032;SDS011;24794;51.982;5.878;2024-02-26T05:58:56;5.60;;;4.45;;
39032;SDS011;24794;51.982;5.878;2024-02-26T05:59:56;6.47;;;4.75;;
39032;SDS011;24794;51.982;5.878;2024-02-26T06:01:00;7.35;;;4.50;;
39032;SDS011;24794;51.982;5.878;2024-02-26T06:02:01;6.18;;;4.78;;
39032;SDS011;24794;51.982;5.878;2024-02-26T06:03:01;6.28;;;4.47;;
39032;SDS011;24794;51.982;5.878;2024-02-26T06:04:02;5.30;;;4.22;;
39032;SDS011;24794;51.982;5.878;2024-02-26T06:05:03;5.57;;;4.28;;
39032;SDS011;24794;51.982;5.878;2024-02-26T06:06:03;6.72;;;4.72;;
39032;SDS011;24794;51.982;5.878;2024-02-26T06:07:04;6.40;;;4.40;;
39032;SDS011;24794;51.982;5.878;2024-02-26T06:08:05;5.65;;;4.22;;